createdAt,value
2023-01-08T00:01:12.457Z,7.90
2023-01-08T00:03:39.976Z,7.91
2023-01-08T00:06:10.618Z,7.93
2023-01-08T00:08:37.237Z,7.86
2023-01-08T00:11:03.673Z,7.71
2023-01-08T00:13:30.188Z,7.73
2023-01-08T00:15:56.663Z,7.81
2023-01-08T00:18:24.729Z,7.82
2023-01-08T00:20:51.190Z,7.88
2023-01-08T00:23:19.547Z,7.85
2023-01-08T00:25:46.742Z,7.89
2023-01-08T00:28:14.978Z,7.89
2023-01-08T00:30:42.078Z,7.98
2023-01-08T00:33:08.799Z,7.92
2023-01-08T00:35:37.218Z,7.92
2023-01-08T00:38:03.666Z,7.95
2023-01-08T00:40:30.140Z,7.91
2023-01-08T00:42:56.595Z,7.90
2023-01-08T00:45:23.073Z,8.01
2023-01-08T00:47:49.505Z,7.99
2023-01-08T00:50:16.713Z,8.02
2023-01-08T00:52:43.244Z,8.01
2023-01-08T00:55:09.914Z,8.07
2023-01-08T00:57:38.349Z,8.05
2023-01-08T01:00:08.673Z,8.02
2023-01-08T01:02:36.429Z,8.04
2023-01-08T01:05:03.409Z,8.01
2023-01-08T01:07:29.889Z,8.02
2023-01-08T01:09:56.406Z,8.05
2023-01-08T01:12:22.945Z,8.05
2023-01-08T01:14:49.429Z,8.06
2023-01-08T01:17:16.029Z,8.02
2023-01-08T01:19:43.165Z,8.06
2023-01-08T01:22:09.600Z,7.93
2023-01-08T01:24:36.347Z,7.90
2023-01-08T01:27:02.829Z,7.89
2023-01-08T01:29:29.244Z,7.92
2023-01-08T01:31:57.604Z,7.93
2023-01-08T01:34:24.407Z,8.01
2023-01-08T01:36:50.839Z,8.05
2023-01-08T01:39:17.355Z,8.00
2023-01-08T01:41:46.066Z,7.90
2023-01-08T01:44:34.608Z,7.94
2023-01-08T01:47:05.437Z,7.89
2023-01-08T01:49:33.017Z,7.80
2023-01-08T01:52:02.726Z,7.85
2023-01-08T01:54:31.265Z,7.87
2023-01-08T01:56:59.642Z,7.89
2023-01-08T01:59:26.119Z,7.86
2023-01-08T02:01:53.018Z,7.73
2023-01-08T02:04:19.556Z,7.70
2023-01-08T02:07:13.908Z,7.79
2023-01-08T02:09:51.903Z,7.73
2023-01-08T02:12:26.335Z,7.82
2023-01-08T02:15:03.189Z,7.80
2023-01-08T02:17:45.999Z,7.77
2023-01-08T02:20:18.813Z,7.77
2023-01-08T02:23:09.180Z,7.67
2023-01-08T02:25:57.492Z,7.73
2023-01-08T02:28:26.204Z,7.75
2023-01-08T02:30:53.233Z,7.65
2023-01-08T02:33:19.676Z,7.64
2023-01-08T02:35:54.492Z,7.65
2023-01-08T02:38:23.349Z,7.70
2023-01-08T02:41:07.179Z,7.67
2023-01-08T02:43:47.970Z,7.74
2023-01-08T02:46:19.176Z,7.70
2023-01-08T02:48:49.007Z,7.70
2023-01-08T02:51:30.636Z,7.74
2023-01-08T02:54:04.568Z,7.73
2023-01-08T02:56:35.868Z,7.71
2023-01-08T02:59:05.221Z,7.58
2023-01-08T03:01:33.639Z,7.65
2023-01-08T03:04:06.311Z,7.64
2023-01-08T03:06:33.262Z,7.66
2023-01-08T03:09:00.255Z,7.73
2023-01-08T03:11:33.098Z,7.75
2023-01-08T03:14:21.699Z,7.72
2023-01-08T03:16:55.253Z,7.62
2023-01-08T03:19:35.538Z,7.60
2023-01-08T03:22:03.745Z,7.64
2023-01-08T03:24:35.086Z,7.66
2023-01-08T03:27:05.538Z,7.69
2023-01-08T03:29:34.169Z,7.72
2023-01-08T03:32:05.422Z,7.62
2023-01-08T03:34:34.856Z,7.57
2023-01-08T03:37:04.998Z,7.57
2023-01-08T03:39:40.102Z,7.53
2023-01-08T03:42:10.408Z,7.56
2023-01-08T03:44:37.030Z,7.45
2023-01-08T03:47:04.359Z,7.34
2023-01-08T03:49:31.268Z,7.17
2023-01-08T03:51:57.680Z,7.22
2023-01-08T03:54:30.262Z,7.18
2023-01-08T03:56:56.989Z,7.21
2023-01-08T03:59:23.946Z,6.99
2023-01-08T04:01:50.535Z,7.00
2023-01-08T04:04:17.739Z,7.09
2023-01-08T04:06:44.301Z,7.13
2023-01-08T04:09:10.709Z,7.18
2023-01-08T04:11:37.224Z,7.05
2023-01-08T04:14:03.709Z,7.11
2023-01-08T04:16:30.173Z,7.03
2023-01-08T04:18:56.553Z,7.06
2023-01-08T04:21:22.963Z,7.09
2023-01-08T04:23:49.394Z,7.10
2023-01-08T04:26:15.805Z,7.11
2023-01-08T04:28:42.239Z,7.08
2023-01-08T04:31:09.980Z,7.07
2023-01-08T04:33:36.753Z,6.99
2023-01-08T04:36:04.244Z,6.87
2023-01-08T04:38:30.726Z,6.89
2023-01-08T04:40:58.601Z,6.85
2023-01-08T04:43:25.184Z,6.91
2023-01-08T04:45:51.730Z,6.76
2023-01-08T04:48:18.251Z,6.82
2023-01-08T04:50:44.740Z,6.95
2023-01-08T04:53:11.182Z,6.95
2023-01-08T04:55:39.667Z,6.82
2023-01-08T04:58:06.369Z,6.88
2023-01-08T05:00:32.954Z,6.91
2023-01-08T05:02:59.464Z,6.88
2023-01-08T05:05:26.001Z,6.73
2023-01-08T05:07:52.536Z,6.81
2023-01-08T05:10:18.978Z,6.77
2023-01-08T05:12:45.414Z,6.86
2023-01-08T05:15:11.813Z,6.91
2023-01-08T05:17:38.265Z,6.86
2023-01-08T05:20:05.081Z,6.92
2023-01-08T05:22:31.549Z,6.93
2023-01-08T05:24:58.004Z,6.94
2023-01-08T05:27:24.462Z,6.94
2023-01-08T05:29:51.739Z,6.94
2023-01-08T05:32:19.008Z,6.86
2023-01-08T05:34:46.189Z,6.88
2023-01-08T05:37:12.718Z,6.88
2023-01-08T05:39:39.184Z,6.83
2023-01-08T05:42:05.682Z,6.83
2023-01-08T05:44:32.116Z,6.88
2023-01-08T05:46:58.606Z,6.86
2023-01-08T05:49:25.145Z,6.85
2023-01-08T05:51:51.586Z,6.83
2023-01-08T05:54:18.026Z,6.77
2023-01-08T05:56:44.556Z,6.75
2023-01-08T05:59:12.064Z,6.90
2023-01-08T06:01:38.535Z,6.89
2023-01-08T06:04:05.300Z,6.80
2023-01-08T06:06:31.886Z,6.75
2023-01-08T06:08:58.417Z,6.80
2023-01-08T06:11:24.866Z,6.75
2023-01-08T06:13:51.343Z,6.86
2023-01-08T06:16:17.790Z,6.91
2023-01-08T06:18:44.276Z,6.98
2023-01-08T06:21:12.395Z,7.00
2023-01-08T06:23:39.737Z,6.95
2023-01-08T06:26:06.345Z,7.02
2023-01-08T06:28:33.021Z,6.93
2023-01-08T06:31:01.559Z,6.97
2023-01-08T06:33:28.517Z,6.90
2023-01-08T06:35:55.089Z,6.87
2023-01-08T06:38:21.670Z,6.90
2023-01-08T06:40:48.105Z,6.91
2023-01-08T06:43:14.779Z,6.83
2023-01-08T06:45:41.187Z,6.89
2023-01-08T06:48:07.657Z,6.90
2023-01-08T06:50:34.800Z,6.92
2023-01-08T06:53:01.536Z,6.94
2023-01-08T06:55:27.975Z,6.88
2023-01-08T06:57:55.346Z,6.54
2023-01-08T07:00:26.136Z,6.77
2023-01-08T07:02:53.823Z,7.20
2023-01-08T07:05:20.937Z,7.71
2023-01-08T07:07:47.449Z,7.98
2023-01-08T07:10:14.123Z,8.32
2023-01-08T07:12:40.695Z,8.72
2023-01-08T07:15:07.991Z,8.76
2023-01-08T07:17:34.923Z,8.81
2023-01-08T07:20:01.435Z,8.85
2023-01-08T07:22:28.310Z,8.84
2023-01-08T07:24:55.114Z,8.96
2023-01-08T07:27:21.628Z,9.13
2023-01-08T07:29:48.307Z,9.13
2023-01-08T07:32:14.741Z,9.31
2023-01-08T07:34:41.130Z,9.56
2023-01-08T07:37:07.573Z,9.72
2023-01-08T07:39:34.106Z,9.79
2023-01-08T07:42:00.923Z,9.80
2023-01-08T07:44:27.348Z,9.96
2023-01-08T07:46:53.844Z,10.04
2023-01-08T07:49:20.343Z,10.06
2023-01-08T07:51:49.228Z,9.86
2023-01-08T07:54:15.721Z,9.89
2023-01-08T07:56:42.189Z,9.84
2023-01-08T07:59:08.726Z,9.78
2023-01-08T08:01:35.296Z,9.44
2023-01-08T08:04:01.746Z,9.18
2023-01-08T08:06:28.143Z,8.80
2023-01-08T08:08:57.133Z,8.67
2023-01-08T08:11:23.543Z,8.43
2023-01-08T08:13:52.604Z,8.27
2023-01-08T08:16:20.035Z,8.14
2023-01-08T08:18:46.714Z,7.97
2023-01-08T08:21:13.210Z,7.70
2023-01-08T08:23:39.709Z,7.84
2023-01-08T08:26:07.917Z,7.64
2023-01-08T08:28:34.550Z,7.57
2023-01-08T08:31:03.631Z,7.70
2023-01-08T08:33:30.292Z,7.15
2023-01-08T08:35:56.818Z,7.22
2023-01-08T08:38:25.065Z,7.42
2023-01-08T08:40:51.929Z,7.32
2023-01-08T08:43:18.818Z,7.28
2023-01-08T08:45:45.569Z,7.26
2023-01-08T08:48:12.268Z,6.94
2023-01-08T08:50:39.287Z,7.28
2023-01-08T08:53:06.479Z,7.10
2023-01-08T08:55:38.403Z,6.97
2023-01-08T08:58:07.808Z,7.29
2023-01-08T09:00:34.738Z,6.91
2023-01-08T09:03:01.605Z,7.05
2023-01-08T09:05:28.947Z,7.26
2023-01-08T09:07:56.030Z,7.27
2023-01-08T09:10:24.162Z,7.26
2023-01-08T09:12:53.459Z,6.92
2023-01-08T09:15:23.448Z,7.31
2023-01-08T09:17:57.230Z,7.20
2023-01-08T09:20:25.459Z,7.31
2023-01-08T09:22:52.279Z,6.90
2023-01-08T09:25:19.397Z,7.01
2023-01-08T09:27:46.167Z,6.74
2023-01-08T09:30:12.791Z,6.82
2023-01-08T09:32:39.442Z,7.22
2023-01-08T09:35:07.066Z,7.16
2023-01-08T09:37:34.898Z,7.00
2023-01-08T09:40:03.964Z,7.15
2023-01-08T09:42:32.673Z,7.04
2023-01-08T09:45:01.872Z,7.04
2023-01-08T09:47:38.186Z,7.14
2023-01-08T09:50:11.319Z,6.78
2023-01-08T09:52:39.379Z,7.08
2023-01-08T09:55:14.124Z,7.12
2023-01-08T09:57:44.595Z,7.19
2023-01-08T10:00:33.786Z,7.32
2023-01-08T10:03:00.620Z,7.22
2023-01-08T10:05:28.444Z,7.29
2023-01-08T10:07:55.535Z,7.23
2023-01-08T10:10:29.306Z,7.52
2023-01-08T10:12:56.233Z,7.50
2023-01-08T10:15:24.976Z,7.53
2023-01-08T10:18:00.805Z,7.17
2023-01-08T10:20:27.631Z,7.51
2023-01-08T10:22:56.476Z,7.39
2023-01-08T10:25:26.139Z,7.49
2023-01-08T10:27:58.923Z,7.66
2023-01-08T10:30:39.944Z,7.73
2023-01-08T10:33:21.843Z,8.01
2023-01-08T10:36:09.211Z,7.82
2023-01-08T10:38:49.825Z,7.90
2023-01-08T10:41:18.342Z,7.72
2023-01-08T10:43:55.376Z,7.85
2023-01-08T10:46:25.086Z,7.87
2023-01-08T10:48:56.209Z,7.72
2023-01-08T10:51:28.702Z,7.48
2023-01-08T10:53:59.480Z,7.53
2023-01-08T10:56:29.618Z,7.49
2023-01-08T10:59:02.570Z,7.36
2023-01-08T11:01:31.757Z,7.38
2023-01-08T11:04:05.056Z,7.47
2023-01-08T11:06:34.302Z,7.55
2023-01-08T11:09:04.225Z,7.40
2023-01-08T11:11:35.747Z,7.59
2023-01-08T11:14:06.325Z,7.76
2023-01-08T11:16:37.009Z,7.82
2023-01-08T11:19:05.077Z,7.60
2023-01-08T11:21:33.480Z,7.71
2023-01-08T11:24:22.798Z,8.06
2023-01-08T11:26:54.001Z,8.04
2023-01-08T11:29:32.216Z,7.87
2023-01-08T11:32:19.029Z,8.14
2023-01-08T11:34:56.435Z,8.16
2023-01-08T11:37:29.262Z,8.11
2023-01-08T11:39:57.003Z,8.09
2023-01-08T11:42:44.954Z,8.01
2023-01-08T11:45:25.104Z,7.98
2023-01-08T11:48:47.875Z,7.94
2023-01-08T11:51:52.486Z,8.06
2023-01-08T11:54:42.086Z,7.95
2023-01-08T11:57:18.470Z,7.90
2023-01-08T12:00:19.254Z,7.93
2023-01-08T12:02:59.740Z,8.11
2023-01-08T12:05:52.055Z,8.17
2023-01-08T12:09:00.895Z,8.18
2023-01-08T12:11:34.424Z,8.07
2023-01-08T12:14:22.293Z,8.08
2023-01-08T12:17:04.836Z,8.01
2023-01-08T12:19:57.376Z,8.14
2023-01-08T12:22:47.392Z,7.99
2023-01-08T12:25:35.356Z,7.91
2023-01-08T12:28:28.543Z,8.01
2023-01-08T12:31:30.476Z,8.18
2023-01-08T12:34:05.858Z,8.27
2023-01-08T12:36:44.551Z,8.33
2023-01-08T12:39:24.371Z,8.14
2023-01-08T12:41:54.388Z,8.33
2023-01-08T12:44:26.680Z,8.07
2023-01-08T12:46:55.374Z,8.00
2023-01-08T12:49:32.322Z,7.99
2023-01-08T12:52:11.470Z,7.53
2023-01-08T12:54:48.920Z,8.03
2023-01-08T12:57:49.030Z,8.08
2023-01-08T13:00:23.148Z,7.90
2023-01-08T13:02:57.907Z,7.67
2023-01-08T13:05:24.787Z,7.81
2023-01-08T13:07:54.787Z,7.69
2023-01-08T13:10:39.879Z,7.78
2023-01-08T13:13:23.331Z,7.23
2023-01-08T13:15:50.437Z,7.40
2023-01-08T13:18:19.634Z,7.03
2023-01-08T13:20:57.507Z,7.51
2023-01-08T13:23:27.533Z,7.45
2023-01-08T13:25:57.460Z,7.59
2023-01-08T13:28:27.701Z,7.56
2023-01-08T13:30:57.702Z,7.22
2023-01-08T13:33:39.747Z,7.15
2023-01-08T13:36:20.887Z,7.51
2023-01-08T13:39:00.736Z,7.38
2023-01-08T13:41:41.749Z,7.20
2023-01-08T13:44:28.255Z,7.50
2023-01-08T13:47:01.291Z,7.05
2023-01-08T13:49:50.307Z,7.31
2023-01-08T13:52:46.140Z,7.42
2023-01-08T13:55:20.154Z,7.35
2023-01-08T13:57:51.176Z,6.79
2023-01-08T14:00:45.378Z,7.52
2023-01-08T14:03:30.163Z,7.63
2023-01-08T14:06:26.249Z,7.58
2023-01-08T14:08:58.766Z,7.48
2023-01-08T14:11:34.908Z,7.27
2023-01-08T14:14:03.190Z,7.43
2023-01-08T14:16:30.429Z,7.42
2023-01-08T14:19:01.096Z,7.53
2023-01-08T14:21:31.441Z,7.64
2023-01-08T14:24:00.710Z,7.64
2023-01-08T14:26:37.641Z,7.71
2023-01-08T14:29:21.639Z,7.67
2023-01-08T14:31:56.459Z,7.65
2023-01-08T14:34:31.287Z,6.96
2023-01-08T14:37:00.826Z,6.78
2023-01-08T14:39:31.750Z,7.60
2023-01-08T14:42:25.973Z,7.26
2023-01-08T14:44:59.511Z,7.28
2023-01-08T14:47:39.403Z,6.96
2023-01-08T14:50:23.955Z,6.06
2023-01-08T14:53:09.067Z,6.69
2023-01-08T14:55:44.771Z,5.66
2023-01-08T14:58:23.787Z,7.29
2023-01-08T15:01:05.542Z,7.38
2023-01-08T15:03:40.694Z,7.49
2023-01-08T15:06:08.454Z,6.33
2023-01-08T15:08:39.490Z,6.96
2023-01-08T15:11:36.639Z,5.78
2023-01-08T15:14:20.096Z,7.55
2023-01-08T15:16:48.365Z,7.29
2023-01-08T15:19:28.216Z,7.32
2023-01-08T15:21:58.453Z,7.37
2023-01-08T15:24:29.538Z,7.29
2023-01-08T15:26:57.094Z,6.79
2023-01-08T15:29:33.106Z,7.20
2023-01-08T15:32:12.893Z,7.36
2023-01-08T15:34:45.212Z,7.23
2023-01-08T15:37:15.002Z,7.30
2023-01-08T15:39:42.792Z,7.20
2023-01-08T15:42:43.893Z,7.02
2023-01-08T15:45:15.062Z,7.20
2023-01-08T15:47:42.213Z,7.25
2023-01-08T15:50:09.433Z,7.30
2023-01-08T15:52:40.473Z,7.02
2023-01-08T15:55:11.655Z,6.85
2023-01-08T15:57:40.451Z,6.84
2023-01-08T16:00:08.420Z,7.01
2023-01-08T16:02:47.231Z,6.98
2023-01-08T16:05:19.369Z,6.99
2023-01-08T16:07:46.728Z,6.76
2023-01-08T16:10:15.223Z,7.13
2023-01-08T16:12:43.631Z,7.15
2023-01-08T16:15:19.703Z,7.12
2023-01-08T16:17:46.358Z,7.08
2023-01-08T16:20:14.384Z,6.61
2023-01-08T16:22:41.343Z,7.25
2023-01-08T16:25:09.413Z,7.24
2023-01-08T16:27:38.302Z,7.18
2023-01-08T16:30:07.138Z,6.77
2023-01-08T16:32:33.957Z,6.35
2023-01-08T16:35:00.635Z,6.91
2023-01-08T16:37:27.465Z,6.86
2023-01-08T16:39:54.099Z,6.98
2023-01-08T16:42:20.704Z,6.63
2023-01-08T16:44:47.415Z,6.98
2023-01-08T16:47:13.953Z,6.85
2023-01-08T16:49:41.832Z,6.97
2023-01-08T16:52:09.687Z,6.95
2023-01-08T16:54:36.535Z,6.78
2023-01-08T16:57:03.514Z,6.76
2023-01-08T16:59:32.496Z,6.78
2023-01-08T17:01:59.808Z,6.11
2023-01-08T17:04:28.369Z,6.82
2023-01-08T17:06:55.015Z,6.93
2023-01-08T17:09:22.053Z,6.72
2023-01-08T17:11:48.511Z,6.91
2023-01-08T17:14:15.242Z,6.71
2023-01-08T17:16:42.898Z,6.82
2023-01-08T17:19:09.480Z,6.32
2023-01-08T17:21:36.575Z,6.84
2023-01-08T17:24:04.429Z,6.73
2023-01-08T17:26:32.140Z,6.67
2023-01-08T17:28:59.407Z,6.62
2023-01-08T17:31:27.556Z,6.71
2023-01-08T17:33:54.542Z,6.67
2023-01-08T17:36:23.609Z,6.66
2023-01-08T17:38:53.105Z,6.44
2023-01-08T17:41:40.131Z,5.92
2023-01-08T17:44:08.416Z,6.41
2023-01-08T17:46:42.756Z,6.40
2023-01-08T17:49:11.191Z,5.92
2023-01-08T17:51:38.851Z,6.18
2023-01-08T17:54:09.433Z,6.31
2023-01-08T17:56:36.636Z,6.01
2023-01-08T17:59:03.648Z,6.16
2023-01-08T18:01:30.785Z,6.15
2023-01-08T18:03:57.917Z,5.98
2023-01-08T18:06:24.555Z,5.69
2023-01-08T18:08:51.669Z,5.74
2023-01-08T18:11:21.606Z,5.57
2023-01-08T18:13:48.278Z,5.89
2023-01-08T18:16:15.434Z,5.98
2023-01-08T18:18:42.219Z,5.66
2023-01-08T18:21:10.323Z,5.67
2023-01-08T18:23:37.116Z,5.86
2023-01-08T18:26:07.815Z,5.83
2023-01-08T18:28:36.378Z,5.87
2023-01-08T18:31:07.176Z,5.77
2023-01-08T18:33:35.313Z,5.86
2023-01-08T18:36:06.153Z,5.72
2023-01-08T18:38:33.537Z,5.82
2023-01-08T18:41:00.297Z,5.63
2023-01-08T18:43:27.337Z,5.74
2023-01-08T18:46:01.963Z,5.95
2023-01-08T18:48:29.382Z,5.97
2023-01-08T18:50:56.173Z,6.20
2023-01-08T18:53:23.871Z,6.64
2023-01-08T18:55:50.588Z,6.92
2023-01-08T18:58:17.439Z,6.77
2023-01-08T19:00:44.508Z,7.08
2023-01-08T19:03:12.262Z,7.05
2023-01-08T19:05:45.303Z,7.26
2023-01-08T19:08:12.087Z,6.95
2023-01-08T19:10:40.100Z,6.95
2023-01-08T19:13:06.988Z,6.67
2023-01-08T19:15:33.660Z,6.62
2023-01-08T19:18:00.414Z,6.26
2023-01-08T19:20:28.067Z,6.36
2023-01-08T19:22:55.264Z,6.24
2023-01-08T19:25:23.017Z,6.21
2023-01-08T19:27:52.362Z,6.21
2023-01-08T19:30:19.060Z,6.14
2023-01-08T19:32:48.837Z,6.08
2023-01-08T19:35:15.634Z,5.62
2023-01-08T19:37:43.168Z,5.58
2023-01-08T19:40:10.450Z,5.80
2023-01-08T19:42:55.589Z,5.90
2023-01-08T19:45:22.394Z,6.09
2023-01-08T19:47:49.136Z,5.80
2023-01-08T19:50:16.186Z,5.95
2023-01-08T19:52:42.675Z,5.85
2023-01-08T19:55:10.164Z,5.93
2023-01-08T19:57:36.717Z,5.66
2023-01-08T20:00:04.686Z,5.90
2023-01-08T20:02:38.440Z,5.98
2023-01-08T20:05:05.592Z,5.68
2023-01-08T20:07:32.090Z,6.06
2023-01-08T20:09:58.756Z,5.99
2023-01-08T20:12:25.493Z,5.94
2023-01-08T20:14:52.136Z,5.93
2023-01-08T20:17:21.735Z,5.95
2023-01-08T20:19:50.279Z,6.22
2023-01-08T20:22:17.212Z,6.25
2023-01-08T20:24:45.416Z,5.98
2023-01-08T20:27:12.020Z,6.28
2023-01-08T20:29:39.246Z,6.31
2023-01-08T20:32:06.223Z,6.27
2023-01-08T20:34:33.296Z,5.77
2023-01-08T20:37:00.929Z,6.18
2023-01-08T20:39:27.563Z,6.34
2023-01-08T20:42:01.055Z,5.86
2023-01-08T20:44:30.412Z,6.25
2023-01-08T20:46:57.057Z,6.30
2023-01-08T20:49:25.328Z,6.24
2023-01-08T20:51:58.443Z,6.03
2023-01-08T20:54:26.280Z,6.24
2023-01-08T20:56:55.108Z,6.16
2023-01-08T20:59:24.059Z,6.20
2023-01-08T21:01:51.101Z,6.03
2023-01-08T21:04:17.965Z,5.79
2023-01-08T21:06:45.755Z,6.00
2023-01-08T21:09:14.296Z,6.03
2023-01-08T21:11:41.289Z,6.24
2023-01-08T21:14:08.956Z,6.24
2023-01-08T21:16:37.122Z,5.91
2023-01-08T21:19:03.827Z,6.22
2023-01-08T21:21:33.294Z,6.16
2023-01-08T21:24:04.248Z,6.05
2023-01-08T21:26:33.972Z,6.17
2023-01-08T21:29:03.122Z,6.25
2023-01-08T21:31:33.833Z,6.11
2023-01-08T21:34:03.997Z,6.25
2023-01-08T21:36:31.962Z,6.27
2023-01-08T21:39:00.449Z,6.33
2023-01-08T21:41:48.841Z,6.11
2023-01-08T21:44:40.338Z,5.97
2023-01-08T21:47:10.834Z,6.34
2023-01-08T21:49:38.467Z,6.18
2023-01-08T21:52:24.501Z,6.33
2023-01-08T21:54:51.538Z,6.21
2023-01-08T21:57:18.473Z,6.31
2023-01-08T21:59:48.297Z,6.30
2023-01-08T22:02:18.205Z,5.87
2023-01-08T22:04:46.752Z,6.23
2023-01-08T22:07:14.078Z,6.25
2023-01-08T22:09:40.899Z,6.10
2023-01-08T22:12:08.687Z,6.23
2023-01-08T22:14:37.732Z,6.14
2023-01-08T22:17:08.208Z,6.29
2023-01-08T22:19:37.455Z,6.27
2023-01-08T22:22:04.454Z,5.99
2023-01-08T22:24:31.080Z,5.85
2023-01-08T22:26:57.698Z,6.30
2023-01-08T22:29:24.451Z,6.32
2023-01-08T22:31:51.245Z,6.37
2023-01-08T22:34:19.841Z,6.30
2023-01-08T22:36:50.694Z,6.38
2023-01-08T22:39:17.580Z,6.39
2023-01-08T22:41:44.771Z,6.51
2023-01-08T22:44:13.480Z,6.19
2023-01-08T22:46:40.706Z,6.49
2023-01-08T22:49:09.912Z,6.50
2023-01-08T22:51:41.224Z,6.24
2023-01-08T22:54:07.928Z,6.35
2023-01-08T22:56:34.395Z,6.53
2023-01-08T22:59:00.933Z,6.24
2023-01-08T23:01:27.899Z,6.30
2023-01-08T23:03:57.032Z,6.58
2023-01-08T23:06:25.888Z,6.50
2023-01-08T23:08:53.465Z,6.48
2023-01-08T23:11:22.516Z,6.40
2023-01-08T23:13:54.051Z,6.42
2023-01-08T23:16:24.812Z,6.58
2023-01-08T23:18:52.595Z,6.31
2023-01-08T23:21:21.130Z,6.40
2023-01-08T23:23:48.485Z,6.48
2023-01-08T23:26:21.004Z,6.50
2023-01-08T23:28:50.988Z,6.49
2023-01-08T23:31:21.594Z,6.48
2023-01-08T23:33:48.890Z,6.40
2023-01-08T23:36:18.439Z,6.45
2023-01-08T23:38:46.473Z,6.25
2023-01-08T23:41:13.743Z,5.95
2023-01-08T23:43:42.142Z,6.25
2023-01-08T23:46:09.662Z,6.25
2023-01-08T23:48:36.211Z,5.22
2023-01-08T23:51:04.433Z,5.98
2023-01-08T23:53:31.130Z,6.20
2023-01-08T23:55:58.685Z,6.07
2023-01-08T23:58:25.504Z,5.91
